Spivey, KS (67142)

8:49 AM CST on December 10, 2016 (GMT -0600)
Anthony Medical Center | | Change Station

Elev 1355 ft 37.16 °N, 98.02 °W | Updated 4 minutes ago

Overcast
Overcast
27.5 °F
Feels Like 28 °F
N
1.0
Wind Variable Wind from SE
Gusts 3.0 mph

Today
High -- | Low -- °F
--% Chance of Precip.
Yesterday
High -- | Low -- °F
Precip. -- in
Pressure 30.21 in
Visibility 10.0 miles
Clouds Clear
Windchill 28 °F
Dew Point 22 °F
Humidity 79%
Rainfall 0.00 in
Snow Depth Not available.
7:36 AM 5:14 PM
Waxing Gibbous, 84% visible
METAR KPTT 101435Z AUTO 16011KT 10SM CLR M05/M10 A3021 RMK AO2 T10521100
Pressure 30.21 in
Visibility 10.0 miles
Clouds Clear
Windchill 28 °F
Dew Point 22 °F
Humidity 79%
Rainfall 0.00 in
Snow Depth Not available.
7:36 AM 5:14 PM
Waxing Gibbous, 84% visible
METAR KPTT 101435Z AUTO 16011KT 10SM CLR M05/M10 A3021 RMK AO2 T10521100

10-Day Weather Forecast

Almanac

Astronomy

Dec. 10, 2016 Rise Set
Actual Time
Civil Twilight
Nautical Twilight
Astronomical Twilight
Moon
Length of Visible Light
Length of Day
Tomorrow will be .
, % of the Moon is Illuminated

Today's Extremes

State Highs State Lows

Community

WunderPhotos

Upload Photos

1,956,549 photos uploaded!

WunderBlog® & News

Nearby

Air Quality

  Air Quality AQ Index Pollutant
Not available.

Snow Depth

Station Depth Elevation

Earthquake Activity

City Distance Mag. Time & Date
Minimum magnitude displayed is 2.5.

Coastal Water Temperatures

Place Temperature

Stations

Nearby Weather Stations

Station Location Temp. Windchill Dew Point Humidity Wind Precip. Elev Updated Type
                   

Watches & Warnings

There are currently no watches in effect.